createdAt,value
2023-02-08T00:00:35.577Z,16.20
2023-02-08T00:03:02.268Z,16.77
2023-02-08T00:05:28.878Z,15.20
2023-02-08T00:07:55.473Z,15.90
2023-02-08T00:10:22.128Z,16.95
2023-02-08T00:12:48.769Z,18.30
2023-02-08T00:15:15.699Z,16.33
2023-02-08T00:17:42.363Z,17.52
2023-02-08T00:20:09.849Z,15.88
2023-02-08T00:22:38.107Z,16.42
2023-02-08T00:25:06.336Z,16.83
2023-02-08T00:27:33.126Z,16.33
2023-02-08T00:29:59.786Z,16.33
2023-02-08T00:32:26.481Z,16.95
2023-02-08T00:34:53.137Z,15.95
2023-02-08T00:37:19.827Z,16.13
2023-02-08T00:39:46.439Z,16.73
2023-02-08T00:42:13.203Z,15.70
2023-02-08T00:44:39.822Z,14.65
2023-02-08T00:47:06.484Z,16.48
2023-02-08T00:49:33.236Z,15.63
2023-02-08T00:51:59.879Z,17.45
2023-02-08T00:54:26.568Z,15.63
2023-02-08T00:56:53.158Z,16.90
2023-02-08T00:59:19.831Z,16.40
2023-02-08T01:01:47.214Z,16.15
2023-02-08T01:04:13.866Z,17.42
2023-02-08T01:06:40.460Z,18.83
2023-02-08T01:09:07.063Z,16.63
2023-02-08T01:11:33.870Z,16.38
2023-02-08T01:14:00.783Z,16.20
2023-02-08T01:16:30.998Z,17.42
2023-02-08T01:18:59.303Z,16.88
2023-02-08T01:21:30.881Z,17.48
2023-02-08T01:23:57.904Z,17.08
2023-02-08T01:26:25.872Z,15.95
2023-02-08T01:28:53.788Z,16.73
2023-02-08T01:31:29.320Z,16.70
2023-02-08T01:33:57.839Z,17.10
2023-02-08T01:36:25.261Z,15.77
2023-02-08T01:38:52.225Z,16.58
2023-02-08T01:41:21.943Z,16.48
2023-02-08T01:44:03.716Z,14.60
2023-02-08T01:46:31.908Z,15.52
2023-02-08T01:49:07.966Z,15.80
2023-02-08T01:51:40.262Z,16.05
2023-02-08T01:54:10.035Z,16.80
2023-02-08T01:56:41.481Z,17.35
2023-02-08T01:59:13.400Z,15.10
2023-02-08T02:01:43.307Z,16.15
2023-02-08T02:04:10.107Z,17.33
2023-02-08T02:06:45.840Z,17.88
2023-02-08T02:09:20.162Z,15.43
2023-02-08T02:11:47.441Z,14.77
2023-02-08T02:14:14.936Z,15.73
2023-02-08T02:16:41.876Z,15.02
2023-02-08T02:19:15.321Z,15.65
2023-02-08T02:22:17.024Z,15.70
2023-02-08T02:24:55.651Z,18.33
2023-02-08T02:27:49.568Z,15.93
2023-02-08T02:30:40.871Z,16.52
2023-02-08T02:33:16.273Z,16.17
2023-02-08T02:35:59.556Z,15.68
2023-02-08T02:38:50.742Z,15.57
2023-02-08T02:41:51.909Z,19.15
2023-02-08T02:44:37.518Z,15.38
2023-02-08T02:47:31.645Z,18.90
2023-02-08T02:50:39.023Z,17.08
2023-02-08T02:53:28.530Z,17.05
2023-02-08T02:56:04.313Z,14.90
2023-02-08T02:58:32.973Z,17.35
2023-02-08T03:01:00.044Z,17.08
2023-02-08T03:03:30.568Z,17.35
2023-02-08T03:06:07.432Z,17.92
2023-02-08T03:11:22.852Z,14.40
2023-02-08T03:14:16.003Z,15.20
2023-02-08T03:16:42.583Z,14.77
2023-02-08T03:19:20.973Z,15.27
2023-02-08T03:22:02.162Z,17.20
2023-02-08T03:24:46.301Z,15.73
2023-02-08T03:27:28.854Z,18.05
2023-02-08T03:30:10.934Z,18.77
2023-02-08T03:32:52.093Z,17.70
2023-02-08T03:35:32.060Z,15.77
2023-02-08T03:38:09.622Z,16.90
2023-02-08T03:40:44.109Z,16.13
2023-02-08T03:43:38.062Z,16.10
2023-02-08T03:46:25.990Z,17.08
2023-02-08T03:48:58.937Z,16.85
2023-02-08T03:51:29.090Z,16.10
2023-02-08T03:53:59.551Z,16.42
2023-02-08T03:56:38.885Z,16.17
2023-02-08T03:59:12.721Z,15.73
2023-02-08T04:01:47.570Z,17.80
2023-02-08T04:04:16.718Z,16.52
2023-02-08T04:06:43.675Z,18.50
2023-02-08T04:09:10.708Z,17.45
2023-02-08T04:11:37.453Z,18.00
2023-02-08T04:14:04.641Z,16.83
2023-02-08T04:16:31.273Z,16.75
2023-02-08T04:18:57.927Z,17.13
2023-02-08T04:21:24.570Z,16.23
2023-02-08T04:23:51.221Z,18.58
2023-02-08T04:26:17.891Z,16.17
2023-02-08T04:28:44.981Z,19.02
2023-02-08T04:31:11.802Z,17.20
2023-02-08T04:33:38.510Z,17.77
2023-02-08T04:36:05.532Z,17.17
2023-02-08T04:38:32.204Z,18.92
2023-02-08T04:40:59.494Z,18.67
2023-02-08T04:43:26.276Z,17.38
2023-02-08T04:45:53.468Z,17.42
2023-02-08T04:48:20.362Z,17.35
2023-02-08T04:50:47.088Z,14.40
2023-02-08T04:53:13.738Z,14.40
2023-02-08T04:55:40.386Z,18.20
2023-02-08T04:58:07.037Z,15.88
2023-02-08T05:00:34.042Z,16.20
2023-02-08T05:03:00.657Z,16.25
2023-02-08T05:05:28.072Z,16.50
2023-02-08T05:07:54.728Z,17.15
2023-02-08T05:10:21.872Z,15.73
2023-02-08T05:12:48.500Z,17.17
2023-02-08T05:15:15.142Z,16.60
2023-02-08T05:17:41.747Z,17.10
2023-02-08T05:20:09.439Z,18.92
2023-02-08T05:22:36.077Z,19.48
2023-02-08T05:25:03.188Z,17.38
2023-02-08T05:27:29.842Z,16.58
2023-02-08T05:29:58.883Z,19.17
2023-02-08T05:32:25.903Z,16.52
2023-02-08T05:34:52.589Z,18.23
2023-02-08T05:37:19.314Z,15.30
2023-02-08T05:39:45.915Z,18.42
2023-02-08T05:42:12.581Z,19.55
2023-02-08T05:44:39.519Z,16.92
2023-02-08T05:47:06.162Z,19.33
2023-02-08T05:49:32.787Z,20.38
2023-02-08T05:51:59.423Z,21.55
2023-02-08T05:54:26.072Z,24.13
2023-02-08T05:56:52.733Z,23.92
2023-02-08T05:59:19.362Z,24.23
2023-02-08T06:01:46.042Z,23.67
2023-02-08T06:04:12.793Z,23.35
2023-02-08T06:06:39.385Z,23.08
2023-02-08T06:09:06.697Z,20.70
2023-02-08T06:11:34.426Z,20.02
2023-02-08T06:14:01.188Z,21.15
2023-02-08T06:16:27.963Z,20.25
2023-02-08T06:18:54.797Z,21.13
2023-02-08T06:21:24.108Z,18.77
2023-02-08T06:23:51.052Z,20.58
2023-02-08T06:26:17.699Z,21.02
2023-02-08T06:28:44.656Z,18.15
2023-02-08T06:31:11.334Z,17.98
2023-02-08T06:33:37.927Z,21.20
2023-02-08T06:36:04.770Z,21.55
2023-02-08T06:38:31.886Z,20.50
2023-02-08T06:40:59.566Z,18.55
2023-02-08T06:43:26.423Z,19.60
2023-02-08T06:45:53.085Z,18.40
2023-02-08T06:48:19.712Z,17.48
2023-02-08T06:50:46.309Z,18.33
2023-02-08T06:53:13.537Z,20.90
2023-02-08T06:55:41.090Z,18.60
2023-02-08T06:58:07.997Z,19.52
2023-02-08T07:00:34.661Z,20.20
2023-02-08T07:03:01.271Z,19.10
2023-02-08T07:05:28.131Z,19.83
2023-02-08T07:07:54.824Z,19.77
2023-02-08T07:10:21.730Z,20.25
2023-02-08T07:12:48.378Z,18.70
2023-02-08T07:15:15.575Z,19.50
2023-02-08T07:17:42.218Z,18.85
2023-02-08T07:20:11.534Z,20.33
2023-02-08T07:22:39.589Z,21.13
2023-02-08T07:25:07.930Z,19.75
2023-02-08T07:27:35.149Z,19.88
2023-02-08T07:30:01.903Z,19.02
2023-02-08T07:32:28.509Z,18.92
2023-02-08T07:34:55.302Z,20.10
2023-02-08T07:37:22.742Z,18.00
2023-02-08T07:39:49.567Z,20.85
2023-02-08T07:42:16.381Z,21.23
2023-02-08T07:44:43.046Z,19.13
2023-02-08T07:47:09.738Z,18.10
2023-02-08T07:49:36.517Z,18.95
2023-02-08T07:52:03.276Z,19.00
2023-02-08T07:54:30.064Z,17.50
2023-02-08T07:56:56.981Z,19.55
2023-02-08T07:59:23.754Z,20.42
2023-02-08T08:01:50.409Z,19.95
2023-02-08T08:04:17.165Z,20.45
2023-02-08T08:06:43.809Z,18.42
2023-02-08T08:09:11.206Z,19.58
2023-02-08T08:11:38.002Z,18.17
2023-02-08T08:14:04.626Z,19.27
2023-02-08T08:16:31.330Z,17.80
2023-02-08T08:18:58.030Z,18.05
2023-02-08T08:21:24.729Z,17.75
2023-02-08T08:23:51.361Z,19.05
2023-02-08T08:26:20.615Z,18.65
2023-02-08T08:28:47.902Z,17.70
2023-02-08T08:31:20.408Z,19.73
2023-02-08T08:33:47.364Z,20.02
2023-02-08T08:36:14.568Z,19.27
2023-02-08T08:38:41.905Z,19.83
2023-02-08T08:41:10.607Z,17.88
2023-02-08T08:43:37.412Z,19.40
2023-02-08T08:46:06.976Z,18.80
2023-02-08T08:48:35.297Z,18.65
2023-02-08T08:51:02.268Z,18.58
2023-02-08T08:53:29.141Z,20.95
2023-02-08T08:55:55.798Z,20.38
2023-02-08T08:58:22.470Z,19.88
2023-02-08T09:00:49.492Z,21.02
2023-02-08T09:03:16.292Z,19.00
2023-02-08T09:05:42.936Z,18.38
2023-02-08T09:08:10.465Z,19.83
2023-02-08T09:10:37.298Z,17.65
2023-02-08T09:13:04.630Z,20.42
2023-02-08T09:15:31.622Z,19.10
2023-02-08T09:17:58.530Z,22.00
2023-02-08T09:20:25.582Z,20.25
2023-02-08T09:22:53.705Z,21.95
2023-02-08T09:25:20.328Z,20.98
2023-02-08T09:27:46.937Z,22.55
2023-02-08T09:30:13.740Z,22.25
2023-02-08T09:32:40.844Z,22.00
2023-02-08T09:35:08.416Z,21.33
2023-02-08T09:37:35.177Z,21.05
2023-02-08T09:40:02.571Z,18.67
2023-02-08T09:42:39.045Z,19.80
2023-02-08T09:45:31.439Z,19.63
2023-02-08T09:48:04.028Z,18.00
2023-02-08T09:50:39.979Z,18.08
2023-02-08T09:53:15.553Z,18.15
2023-02-08T09:55:53.538Z,17.83
2023-02-08T09:58:37.323Z,14.77
2023-02-08T10:01:07.871Z,15.93
2023-02-08T10:03:39.208Z,15.40
2023-02-08T10:06:10.521Z,14.90
2023-02-08T10:08:38.510Z,15.65
2023-02-08T10:11:23.757Z,15.48
2023-02-08T10:13:53.241Z,14.93
2023-02-08T10:16:52.892Z,13.25
2023-02-08T10:19:51.799Z,19.15
2023-02-08T10:22:39.282Z,13.90
2023-02-08T10:25:19.897Z,11.80
2023-02-08T10:28:10.611Z,10.55
2023-02-08T10:30:57.243Z,11.25
2023-02-08T10:33:36.485Z,10.43
2023-02-08T10:36:12.106Z,9.70
2023-02-08T10:38:46.654Z,9.25
2023-02-08T10:41:26.018Z,10.98
2023-02-08T10:44:16.780Z,8.13
2023-02-08T10:47:21.074Z,8.32
2023-02-08T10:49:57.384Z,8.60
2023-02-08T10:52:24.593Z,8.10
2023-02-08T10:54:51.302Z,7.90
2023-02-08T10:57:23.635Z,8.20
2023-02-08T11:00:05.680Z,8.45
2023-02-08T11:02:34.793Z,8.23
2023-02-08T11:05:07.742Z,8.07
2023-02-08T11:07:36.639Z,7.65
2023-02-08T11:10:19.567Z,7.95
2023-02-08T11:13:03.718Z,7.32
2023-02-08T11:15:45.638Z,7.25
2023-02-08T11:18:33.343Z,6.47
2023-02-08T11:21:04.426Z,8.05
2023-02-08T11:23:33.862Z,7.40
2023-02-08T11:26:15.470Z,6.40
2023-02-08T11:28:42.822Z,6.60
2023-02-08T11:31:20.336Z,6.60
2023-02-08T11:34:05.096Z,6.93
2023-02-08T11:36:34.319Z,6.95
2023-02-08T11:39:03.623Z,5.63
2023-02-08T11:41:30.769Z,5.95
2023-02-08T11:44:02.945Z,6.55
2023-02-08T11:46:32.696Z,5.88
2023-02-08T11:49:00.713Z,6.68
2023-02-08T11:51:32.590Z,7.15
2023-02-08T11:54:00.962Z,7.15
2023-02-08T11:56:34.539Z,7.35
2023-02-08T11:59:03.748Z,7.03
2023-02-08T12:01:42.347Z,7.00
2023-02-08T12:04:12.784Z,7.28
2023-02-08T12:07:12.336Z,7.82
2023-02-08T12:09:55.686Z,6.32
2023-02-08T12:12:41.956Z,6.65
2023-02-08T12:15:45.008Z,6.80
2023-02-08T12:18:26.100Z,7.18
2023-02-08T12:21:10.778Z,7.30
2023-02-08T12:23:51.400Z,7.00
2023-02-08T12:26:20.157Z,8.07
2023-02-08T12:29:01.850Z,7.60
2023-02-08T12:31:38.536Z,6.40
2023-02-08T12:34:08.138Z,6.03
2023-02-08T12:36:43.882Z,6.07
2023-02-08T12:39:47.683Z,6.50
2023-02-08T12:42:41.400Z,7.82
2023-02-08T12:45:15.355Z,10.85
2023-02-08T12:47:58.219Z,7.45
2023-02-08T12:50:51.081Z,8.60
2023-02-08T12:53:33.604Z,7.05
2023-02-08T12:56:05.177Z,6.70
2023-02-08T12:59:01.982Z,7.40
2023-02-08T13:01:41.884Z,8.07
2023-02-08T13:04:14.161Z,7.75
2023-02-08T13:06:55.609Z,7.72
2023-02-08T13:09:35.777Z,7.03
2023-02-08T13:12:06.571Z,7.70
2023-02-08T13:14:38.836Z,6.95
2023-02-08T13:17:23.830Z,6.30
2023-02-08T13:20:05.199Z,6.15
2023-02-08T13:22:37.417Z,6.28
2023-02-08T13:25:08.577Z,7.07
2023-02-08T13:27:35.990Z,7.90
2023-02-08T13:30:03.975Z,6.32
2023-02-08T13:32:45.317Z,6.13
2023-02-08T13:35:27.271Z,5.53
2023-02-08T13:38:26.329Z,4.65
2023-02-08T13:41:16.313Z,4.40
2023-02-08T13:43:48.983Z,3.75
2023-02-08T13:46:18.108Z,4.47
2023-02-08T13:48:57.050Z,4.07
2023-02-08T13:51:32.727Z,3.58
2023-02-08T13:54:02.265Z,3.83
2023-02-08T13:56:41.281Z,3.35
2023-02-08T13:59:26.592Z,3.92
2023-02-08T14:02:12.087Z,4.38
2023-02-08T14:04:43.820Z,3.20
2023-02-08T14:07:30.138Z,4.10
2023-02-08T14:10:17.865Z,3.78
2023-02-08T14:12:51.760Z,3.95
2023-02-08T14:15:18.319Z,3.63
2023-02-08T14:17:47.529Z,3.85
2023-02-08T14:20:29.263Z,3.53
2023-02-08T14:23:03.663Z,4.30
2023-02-08T14:25:48.853Z,3.47
2023-02-08T14:28:26.910Z,2.60
2023-02-08T14:30:57.064Z,2.60
2023-02-08T14:33:32.205Z,3.78
2023-02-08T14:36:02.792Z,4.90
2023-02-08T14:39:06.934Z,3.60
2023-02-08T14:41:50.078Z,3.28
2023-02-08T14:44:38.438Z,3.22
2023-02-08T14:47:11.083Z,3.88
2023-02-08T14:49:42.674Z,4.03
2023-02-08T14:52:20.190Z,3.65
2023-02-08T14:55:14.054Z,3.42
2023-02-08T14:57:41.593Z,3.97
2023-02-08T15:00:20.118Z,3.45
2023-02-08T15:02:48.413Z,3.30
2023-02-08T15:05:25.239Z,3.53
2023-02-08T15:10:24.964Z,4.63
2023-02-08T15:12:56.150Z,3.92
2023-02-08T15:15:32.903Z,3.10
2023-02-08T15:18:01.659Z,4.22
2023-02-08T15:20:31.022Z,3.55
2023-02-08T15:23:04.040Z,4.32
2023-02-08T15:25:36.281Z,3.55
2023-02-08T15:28:25.223Z,3.20
2023-02-08T15:30:56.827Z,3.42
2023-02-08T15:33:24.201Z,3.80
2023-02-08T15:36:01.526Z,3.80
2023-02-08T15:38:30.670Z,3.42
2023-02-08T15:41:05.761Z,3.83
2023-02-08T15:43:34.302Z,3.83
2023-02-08T15:46:04.589Z,4.50
2023-02-08T15:48:32.990Z,4.18
2023-02-08T15:51:01.355Z,4.60
2023-02-08T15:53:28.818Z,3.97
2023-02-08T15:56:04.645Z,4.80
2023-02-08T15:58:44.080Z,5.72
2023-02-08T16:01:19.282Z,4.63
2023-02-08T16:03:55.448Z,4.90
2023-02-08T16:06:28.584Z,5.22
2023-02-08T16:09:00.944Z,6.20
2023-02-08T16:11:33.993Z,5.40
2023-02-08T16:14:03.702Z,5.90
2023-02-08T16:16:42.119Z,5.40
2023-02-08T16:19:20.858Z,5.60
2023-02-08T16:21:47.696Z,5.85
2023-02-08T16:24:14.286Z,5.82
2023-02-08T16:26:49.794Z,5.75
2023-02-08T16:29:35.300Z,5.63
2023-02-08T16:32:12.512Z,5.88
2023-02-08T16:34:40.584Z,5.68
2023-02-08T16:37:23.706Z,7.32
2023-02-08T16:39:50.296Z,7.57
2023-02-08T16:42:35.878Z,6.10
2023-02-08T16:45:08.697Z,6.97
2023-02-08T16:47:39.938Z,7.00
2023-02-08T16:50:09.587Z,7.15
2023-02-08T16:52:36.752Z,7.85
2023-02-08T16:55:04.498Z,6.60
2023-02-08T16:57:49.942Z,7.72
2023-02-08T17:00:23.438Z,10.30
2023-02-08T17:02:51.724Z,8.32
2023-02-08T17:05:20.689Z,7.35
2023-02-08T17:07:47.854Z,8.10
2023-02-08T17:10:19.232Z,8.68
2023-02-08T17:12:45.919Z,8.35
2023-02-08T17:15:12.585Z,8.45
2023-02-08T17:17:39.259Z,8.45
2023-02-08T17:20:22.199Z,9.82
2023-02-08T17:22:51.982Z,9.20
2023-02-08T17:25:19.981Z,8.23
2023-02-08T17:27:59.130Z,8.77
2023-02-08T17:30:27.526Z,9.98
2023-02-08T17:32:56.220Z,8.32
2023-02-08T17:35:28.487Z,9.95
2023-02-08T17:37:56.820Z,9.65
2023-02-08T17:40:31.041Z,9.82
2023-02-08T17:42:58.009Z,9.40
2023-02-08T17:45:24.798Z,8.43
2023-02-08T17:47:51.434Z,9.48
2023-02-08T17:50:19.740Z,8.13
2023-02-08T17:52:46.795Z,8.85
2023-02-08T17:55:15.642Z,9.95
2023-02-08T17:57:43.678Z,8.57
2023-02-08T18:00:19.312Z,9.77
2023-02-08T18:02:48.506Z,9.25
2023-02-08T18:05:19.752Z,9.05
2023-02-08T18:07:46.811Z,8.85
2023-02-08T18:10:15.229Z,8.73
2023-02-08T18:12:43.009Z,7.88
2023-02-08T18:15:12.992Z,9.45
2023-02-08T18:17:40.548Z,9.40
2023-02-08T18:20:08.607Z,8.32
2023-02-08T18:22:36.683Z,8.90
2023-02-08T18:25:04.710Z,8.60
2023-02-08T18:27:31.691Z,9.70
2023-02-08T18:29:58.741Z,8.48
2023-02-08T18:32:28.123Z,9.40
2023-02-08T18:34:55.459Z,8.65
2023-02-08T18:37:23.234Z,9.13
2023-02-08T18:39:51.317Z,8.02
2023-02-08T18:42:18.387Z,8.48
2023-02-08T18:44:45.057Z,9.95
2023-02-08T18:47:11.765Z,9.35
2023-02-08T18:49:40.963Z,10.15
2023-02-08T18:52:10.273Z,9.23
2023-02-08T18:54:38.345Z,9.18
2023-02-08T18:57:06.964Z,9.90
2023-02-08T18:59:35.117Z,8.25
2023-02-08T19:02:02.649Z,8.48
2023-02-08T19:04:29.679Z,8.52
2023-02-08T19:06:56.407Z,8.68
2023-02-08T19:09:23.046Z,10.10
2023-02-08T19:11:50.421Z,10.23
2023-02-08T19:14:17.213Z,9.52
2023-02-08T19:16:43.858Z,8.80
2023-02-08T19:19:13.818Z,10.13
2023-02-08T19:21:40.711Z,8.82
2023-02-08T19:24:07.472Z,8.75
2023-02-08T19:26:39.792Z,9.48
2023-02-08T19:29:15.798Z,8.27
2023-02-08T19:31:43.654Z,9.10
2023-02-08T19:34:12.034Z,8.48
2023-02-08T19:36:44.394Z,10.10
2023-02-08T19:39:15.796Z,9.20
2023-02-08T19:41:42.974Z,10.38
2023-02-08T19:44:14.303Z,9.02
2023-02-08T19:46:44.804Z,9.10
2023-02-08T19:49:12.860Z,8.70
2023-02-08T19:51:40.171Z,9.80
2023-02-08T19:54:10.486Z,10.00
2023-02-08T19:56:37.501Z,9.52
2023-02-08T19:59:06.194Z,10.80
2023-02-08T20:01:35.457Z,11.02
2023-02-08T20:04:03.683Z,9.65
2023-02-08T20:06:36.393Z,11.38
2023-02-08T20:09:04.747Z,10.93
2023-02-08T20:11:33.844Z,10.23
2023-02-08T20:14:01.097Z,11.55
2023-02-08T20:16:31.686Z,10.32
2023-02-08T20:18:58.840Z,10.23
2023-02-08T20:21:26.253Z,11.18
2023-02-08T20:23:54.139Z,9.73
2023-02-08T20:26:25.315Z,11.32
2023-02-08T20:28:57.410Z,11.25
2023-02-08T20:31:37.399Z,9.75
2023-02-08T20:34:07.042Z,11.75
2023-02-08T20:36:39.878Z,10.98
2023-02-08T20:39:09.183Z,10.55
2023-02-08T20:41:35.914Z,11.70
2023-02-08T20:44:02.574Z,11.63
2023-02-08T20:46:34.726Z,11.93
2023-02-08T20:49:03.730Z,10.18
2023-02-08T20:51:31.201Z,10.82
2023-02-08T20:54:01.111Z,11.35
2023-02-08T20:56:33.875Z,11.35
2023-02-08T20:59:10.947Z,11.68
2023-02-08T21:01:38.652Z,11.40
2023-02-08T21:04:05.543Z,10.25
2023-02-08T21:06:37.607Z,10.45
2023-02-08T21:09:07.078Z,10.65
2023-02-08T21:11:34.331Z,11.77
2023-02-08T21:14:02.376Z,10.50
2023-02-08T21:16:32.115Z,11.13
2023-02-08T21:18:59.549Z,10.38
2023-02-08T21:21:28.101Z,10.27
2023-02-08T21:23:56.787Z,10.02
2023-02-08T21:26:25.356Z,9.45
2023-02-08T21:28:54.277Z,10.18
2023-02-08T21:31:22.576Z,10.85
2023-02-08T21:33:50.409Z,10.85
2023-02-08T21:36:20.287Z,10.77
2023-02-08T21:38:47.698Z,11.90
2023-02-08T21:41:17.190Z,10.57
2023-02-08T21:43:44.258Z,11.77
2023-02-08T21:46:11.087Z,12.10
2023-02-08T21:48:57.018Z,10.52
2023-02-08T21:51:43.266Z,10.48
2023-02-08T21:54:34.014Z,9.50
2023-02-08T21:57:05.777Z,9.98
2023-02-08T21:59:37.180Z,10.38
2023-02-08T22:02:08.666Z,10.00
2023-02-08T22:04:55.329Z,9.82
2023-02-08T22:07:23.028Z,10.00
2023-02-08T22:09:50.723Z,9.63
2023-02-08T22:12:20.786Z,10.95
2023-02-08T22:14:49.254Z,10.43
2023-02-08T22:17:16.044Z,8.98
2023-02-08T22:19:43.385Z,9.55
2023-02-08T22:22:11.259Z,10.05
2023-02-08T22:24:38.273Z,10.45
2023-02-08T22:27:05.062Z,10.05
2023-02-08T22:29:31.724Z,9.65
2023-02-08T22:31:58.595Z,9.85
2023-02-08T22:34:27.055Z,10.88
2023-02-08T22:36:53.859Z,11.10
2023-02-08T22:39:21.359Z,11.00
2023-02-08T22:41:48.304Z,10.70
2023-02-08T22:44:15.578Z,10.40
2023-02-08T22:46:42.255Z,10.50
2023-02-08T22:49:08.990Z,10.70
2023-02-08T22:51:35.848Z,11.18
2023-02-08T22:54:02.915Z,11.65
2023-02-08T22:56:29.696Z,11.10
2023-02-08T22:58:56.492Z,10.88
2023-02-08T23:01:23.342Z,11.73
2023-02-08T23:03:50.516Z,12.35
2023-02-08T23:06:17.460Z,11.95
2023-02-08T23:08:44.730Z,12.23
2023-02-08T23:11:13.734Z,11.80
2023-02-08T23:13:40.908Z,11.35
2023-02-08T23:16:07.970Z,10.80
2023-02-08T23:18:35.919Z,10.98
2023-02-08T23:21:13.039Z,12.20
2023-02-08T23:23:40.557Z,11.57
2023-02-08T23:26:09.808Z,12.13
2023-02-08T23:28:37.738Z,11.48
2023-02-08T23:31:09.198Z,12.13
2023-02-08T23:33:38.072Z,11.85
2023-02-08T23:36:10.229Z,11.52
2023-02-08T23:38:37.714Z,11.80
2023-02-08T23:41:06.182Z,10.13
2023-02-08T23:43:33.245Z,11.02
2023-02-08T23:45:59.982Z,10.88
2023-02-08T23:48:27.312Z,11.98
2023-02-08T23:51:01.639Z,12.50
2023-02-08T23:53:30.342Z,11.13
2023-02-08T23:56:11.955Z,10.65
2023-02-08T23:58:39.240Z,10.63
